Tampico, Washington
Current Conditions -  °F | °C
As of 7:53 PM on Wednesday 22 Oct 2014 (Local Time) from KYKM Reporting Station
Light Rain Light Rain  
Wind Chill: 60°   Ceiling: 9000
Heat Index: 60°   Visibility: 10mi
Dew Point: 50°   Wind: 12mph
Humidity: 69%   Direction: 180°S
Pressure: 29.67"   Gusts: NA
Location:  46.5979°N, 120.534°W
Report Text: KYKM 230253Z 18010KT 10SM -RA FEW070 OVC090 16/10 A2967 RMK AO2 RAB26 SLP046 P0000 60001 T01560100 56004
Loading
Personal Weather Stations






























Interactive Weather Map
Tropical Storm Tracking
New forecast layout! Learn more

10-Day Weather Forecast

Advertisements
Track Severe Weather on mobile